createdAt,value
2023-03-07T00:03:43.158Z,20.17
2023-03-07T00:08:45.019Z,18.33
2023-03-07T00:13:47.011Z,19.83
2023-03-07T00:18:49.242Z,20.90
2023-03-07T00:23:52.459Z,20.55
2023-03-07T00:28:55.687Z,17.10
2023-03-07T00:33:57.535Z,20.08
2023-03-07T00:38:59.202Z,20.08
2023-03-07T00:44:00.882Z,19.15
2023-03-07T00:49:02.587Z,19.27
2023-03-07T00:54:04.351Z,18.42
2023-03-07T00:59:06.170Z,19.05
2023-03-07T01:04:08.529Z,20.25
2023-03-07T01:09:10.885Z,18.45
2023-03-07T01:14:13.026Z,19.83
2023-03-07T01:19:14.704Z,20.30
2023-03-07T01:24:16.833Z,18.45
2023-03-07T01:29:18.610Z,19.48
2023-03-07T01:34:20.467Z,21.75
2023-03-07T01:39:23.062Z,21.00
2023-03-07T01:45:05.321Z,21.48
2023-03-07T01:50:19.443Z,20.95
2023-03-07T01:55:29.715Z,20.05
2023-03-07T02:00:38.519Z,19.48
2023-03-07T02:05:47.367Z,19.83
2023-03-07T02:10:49.468Z,21.17
2023-03-07T02:15:51.708Z,19.80
2023-03-07T02:20:59.540Z,20.20
2023-03-07T02:26:20.079Z,21.08
2023-03-07T02:31:21.839Z,20.35
2023-03-07T02:36:28.554Z,18.98
2023-03-07T02:42:04.815Z,19.55
2023-03-07T02:47:16.723Z,20.95
2023-03-07T02:52:19.264Z,19.50
2023-03-07T02:57:21.047Z,18.67
2023-03-07T03:02:22.959Z,18.60
2023-03-07T03:07:24.696Z,18.00
2023-03-07T03:12:26.419Z,19.45
2023-03-07T03:17:28.149Z,20.05
2023-03-07T03:22:29.820Z,17.98
2023-03-07T03:27:32.971Z,16.67
2023-03-07T03:32:37.201Z,17.25
2023-03-07T03:37:39.812Z,16.65
2023-03-07T03:42:42.382Z,15.38
2023-03-07T03:47:44.522Z,15.27
2023-03-07T03:52:46.915Z,15.73
2023-03-07T03:57:48.639Z,14.95
2023-03-07T04:02:50.689Z,14.95
2023-03-07T04:07:53.974Z,14.55
2023-03-07T04:12:55.815Z,14.80
2023-03-07T04:17:57.630Z,13.52
2023-03-07T04:22:59.694Z,15.27
2023-03-07T04:28:01.403Z,15.32
2023-03-07T04:33:03.350Z,14.20
2023-03-07T04:38:05.361Z,14.05
2023-03-07T04:43:07.207Z,15.45
2023-03-07T04:48:09.507Z,13.90
2023-03-07T04:53:12.154Z,14.13
2023-03-07T04:58:14.948Z,16.98
2023-03-07T05:03:17.169Z,13.27
2023-03-07T05:08:21.149Z,13.65
2023-03-07T05:13:22.978Z,12.60
2023-03-07T05:18:25.985Z,13.25
2023-03-07T05:23:29.274Z,12.65
2023-03-07T05:28:31.682Z,12.50
2023-03-07T05:33:33.469Z,12.10
2023-03-07T05:38:35.988Z,13.73
2023-03-07T05:43:37.830Z,15.70
2023-03-07T05:48:39.785Z,14.27
2023-03-07T05:53:41.657Z,13.32
2023-03-07T05:58:43.595Z,14.20
2023-03-07T06:03:47.811Z,13.57
2023-03-07T06:08:49.747Z,13.25
2023-03-07T06:13:52.614Z,13.43
2023-03-07T06:18:54.614Z,13.02
2023-03-07T06:23:56.526Z,13.68
2023-03-07T06:28:58.492Z,13.15
2023-03-07T06:34:01.256Z,13.07
2023-03-07T06:39:03.024Z,13.02
2023-03-07T06:44:04.876Z,12.13
2023-03-07T06:49:07.972Z,12.68
2023-03-07T06:54:10.503Z,12.15
2023-03-07T06:59:13.209Z,11.23
2023-03-07T07:04:14.920Z,11.65
2023-03-07T07:09:17.693Z,11.63
2023-03-07T07:14:19.784Z,10.95
2023-03-07T07:19:22.105Z,11.68
2023-03-07T07:24:24.159Z,10.10
2023-03-07T07:29:27.544Z,9.00
2023-03-07T07:34:30.147Z,11.15
2023-03-07T07:39:33.098Z,9.10
2023-03-07T07:44:34.943Z,8.00
2023-03-07T07:49:42.906Z,11.57
2023-03-07T07:54:44.747Z,8.48
2023-03-07T07:59:46.593Z,16.10
2023-03-07T08:04:48.304Z,10.20
2023-03-07T08:09:50.044Z,7.70
2023-03-07T08:14:51.655Z,7.43
2023-03-07T08:19:53.328Z,6.88
2023-03-07T08:24:54.963Z,6.97
2023-03-07T08:29:56.882Z,7.57
2023-03-07T08:34:58.525Z,6.57
2023-03-07T08:40:00.194Z,5.68
2023-03-07T08:45:01.902Z,6.53
2023-03-07T08:50:04.625Z,5.82
2023-03-07T08:55:06.740Z,5.45
2023-03-07T09:00:09.730Z,5.10
2023-03-07T09:05:11.438Z,5.60
2023-03-07T09:10:13.273Z,5.40
2023-03-07T09:15:14.976Z,7.95
2023-03-07T09:20:17.592Z,5.25
2023-03-07T09:25:20.657Z,6.38
2023-03-07T09:30:27.129Z,12.52
2023-03-07T09:35:28.722Z,13.80
2023-03-07T09:40:30.496Z,6.65
2023-03-07T09:45:43.992Z,8.02
2023-03-07T09:50:59.380Z,9.00
2023-03-07T09:56:08.638Z,5.82
2023-03-07T10:01:15.169Z,4.82
2023-03-07T10:06:26.296Z,5.50
2023-03-07T10:12:05.539Z,5.35
2023-03-07T10:17:25.591Z,6.72
2023-03-07T10:22:38.452Z,6.70
2023-03-07T10:27:40.285Z,5.95
2023-03-07T10:33:01.406Z,6.13
2023-03-07T10:38:15.048Z,9.70
2023-03-07T10:43:25.302Z,7.15
2023-03-07T10:48:28.095Z,6.85
2023-03-07T10:53:34.836Z,6.30
2023-03-07T10:58:36.594Z,6.10
2023-03-07T11:03:53.553Z,6.10
2023-03-07T11:08:56.227Z,6.35
2023-03-07T11:14:06.918Z,6.70
2023-03-07T11:19:49.647Z,7.15
2023-03-07T11:24:51.741Z,5.82
2023-03-07T11:30:40.831Z,5.55
2023-03-07T11:36:01.491Z,6.65
2023-03-07T11:41:11.585Z,6.57
2023-03-07T11:46:16.208Z,6.05
2023-03-07T11:51:31.681Z,6.85
2023-03-07T11:56:41.201Z,5.78
2023-03-07T12:02:05.384Z,6.43
2023-03-07T12:07:35.584Z,10.93
2023-03-07T12:12:58.209Z,6.45
2023-03-07T12:18:27.674Z,7.90
2023-03-07T12:23:39.082Z,6.10
2023-03-07T12:29:06.265Z,7.03
2023-03-07T12:34:10.972Z,6.28
2023-03-07T12:39:28.509Z,5.28
2023-03-07T12:44:39.272Z,5.78
2023-03-07T12:50:19.464Z,6.38
2023-03-07T12:55:29.644Z,6.13
2023-03-07T13:00:35.573Z,6.03
2023-03-07T13:05:38.367Z,6.88
2023-03-07T13:10:40.227Z,6.30
2023-03-07T13:16:01.416Z,5.78
2023-03-07T13:21:32.604Z,7.10
2023-03-07T13:26:34.274Z,6.05
2023-03-07T13:31:39.788Z,6.82
2023-03-07T13:36:41.505Z,5.72
2023-03-07T13:41:48.965Z,5.93
2023-03-07T13:46:52.461Z,6.65
2023-03-07T13:52:17.633Z,5.80
2023-03-07T13:57:25.332Z,7.13
2023-03-07T14:02:28.724Z,6.07
2023-03-07T14:07:36.677Z,5.60
2023-03-07T14:13:15.497Z,5.75
2023-03-07T14:18:26.178Z,6.97
2023-03-07T14:23:51.053Z,9.25
2023-03-07T14:29:20.093Z,6.25
2023-03-07T14:34:21.793Z,6.03
2023-03-07T14:39:24.809Z,5.95
2023-03-07T14:44:47.621Z,6.13
2023-03-07T14:50:09.153Z,6.75
2023-03-07T14:55:18.591Z,6.25
2023-03-07T15:00:20.428Z,7.60
2023-03-07T15:05:22.127Z,6.82
2023-03-07T15:10:37.600Z,6.20
2023-03-07T15:15:47.571Z,7.72
2023-03-07T15:20:52.008Z,6.28
2023-03-07T15:26:05.225Z,5.03
2023-03-07T15:31:08.839Z,6.93
2023-03-07T15:36:13.348Z,6.30
2023-03-07T15:41:58.044Z,6.32
2023-03-07T15:47:06.298Z,4.70
2023-03-07T15:52:21.934Z,5.15
2023-03-07T15:57:31.362Z,7.50
2023-03-07T16:02:33.319Z,4.53
2023-03-07T16:07:35.045Z,4.43
2023-03-07T16:12:46.041Z,5.95
2023-03-07T16:17:52.212Z,5.35
2023-03-07T16:22:54.007Z,3.63
2023-03-07T16:27:58.420Z,4.47
2023-03-07T16:33:00.278Z,4.90
2023-03-07T16:38:01.996Z,5.22
2023-03-07T16:43:03.792Z,4.05
2023-03-07T16:48:05.755Z,6.05
2023-03-07T16:53:07.485Z,9.57
2023-03-07T16:58:34.987Z,5.10
2023-03-07T17:03:36.819Z,5.75
2023-03-07T17:08:38.606Z,5.40
2023-03-07T17:13:40.436Z,4.57
2023-03-07T17:18:42.445Z,2.50
2023-03-07T17:23:45.109Z,1.85
2023-03-07T17:28:47.369Z,4.15
2023-03-07T17:33:52.177Z,3.58
2023-03-07T17:38:53.926Z,4.13
2023-03-07T17:43:55.735Z,3.70
2023-03-07T17:48:57.582Z,2.70
2023-03-07T17:53:59.569Z,2.33
2023-03-07T17:59:04.207Z,2.33
2023-03-07T18:04:06.505Z,6.88
2023-03-07T18:09:09.191Z,2.00
2023-03-07T18:14:12.651Z,2.80
2023-03-07T18:19:25.674Z,1.77
2023-03-07T18:24:30.061Z,4.05
2023-03-07T18:29:34.369Z,2.20
2023-03-07T18:34:36.175Z,4.07
2023-03-07T18:39:38.010Z,2.15
2023-03-07T18:44:40.964Z,2.40
2023-03-07T18:49:42.881Z,3.28
2023-03-07T18:54:44.772Z,4.40
2023-03-07T18:59:46.711Z,3.13
2023-03-07T19:04:48.345Z,2.42
2023-03-07T19:09:53.613Z,2.17
2023-03-07T19:14:55.648Z,8.63
2023-03-07T19:19:59.377Z,3.55
2023-03-07T19:25:01.268Z,1.73
2023-03-07T19:30:03.220Z,2.17
2023-03-07T19:35:05.450Z,2.78
2023-03-07T19:40:08.334Z,3.75
2023-03-07T19:45:10.554Z,3.38
2023-03-07T19:50:12.711Z,4.20
2023-03-07T19:55:14.535Z,4.78
2023-03-07T20:00:16.610Z,4.45
2023-03-07T20:05:22.547Z,5.32
2023-03-07T20:10:28.500Z,4.65
2023-03-07T20:15:35.428Z,4.75
2023-03-07T20:20:40.619Z,5.33
2023-03-07T20:25:43.828Z,7.50
2023-03-07T20:30:47.881Z,4.50
2023-03-07T20:36:06.706Z,6.00
2023-03-07T20:41:14.194Z,4.35
2023-03-07T20:46:19.530Z,5.13
2023-03-07T20:51:24.758Z,4.90
2023-03-07T20:56:32.835Z,4.28
2023-03-07T21:01:38.819Z,3.85
2023-03-07T21:06:44.193Z,4.60
2023-03-07T21:11:51.440Z,4.32
2023-03-07T21:16:53.320Z,4.78
2023-03-07T21:21:54.942Z,3.95
2023-03-07T21:26:58.345Z,3.05
2023-03-07T21:32:00.058Z,3.58
2023-03-07T21:37:01.672Z,4.38
2023-03-07T21:42:03.627Z,4.00
2023-03-07T21:47:05.386Z,4.28
2023-03-07T21:52:07.160Z,5.05
2023-03-07T21:57:08.809Z,4.35
2023-03-07T22:02:11.354Z,3.55
2023-03-07T22:07:14.289Z,4.22
2023-03-07T22:12:17.402Z,3.47
2023-03-07T22:17:19.498Z,4.28
2023-03-07T22:22:21.186Z,4.35
2023-03-07T22:27:22.878Z,4.10
2023-03-07T22:32:24.998Z,4.40
2023-03-07T22:37:27.097Z,4.32
2023-03-07T22:42:29.046Z,4.82
2023-03-07T22:47:31.173Z,5.38
2023-03-07T22:52:32.824Z,6.07
2023-03-07T22:57:34.457Z,6.85
2023-03-07T23:02:36.119Z,7.78
2023-03-07T23:07:37.793Z,7.53
2023-03-07T23:12:39.389Z,7.32
2023-03-07T23:17:41.069Z,9.65
2023-03-07T23:22:42.922Z,11.32
2023-03-07T23:27:44.522Z,11.73
2023-03-07T23:32:46.491Z,11.35
2023-03-07T23:37:48.332Z,7.47
2023-03-07T23:42:49.946Z,8.45
2023-03-07T23:47:52.388Z,7.78
2023-03-07T23:52:54.076Z,6.30
2023-03-07T23:57:55.790Z,5.18
